Mount Hope, Alabama
Current Conditions -  °F | °C
As of 2:56 PM on Thursday 23 Oct 2014 (Local Time) from K1M4 Reporting Station
Clear Clear  
Wind Chill: 68°   Ceiling: Unl
Heat Index: 68°   Visibility: 10mi
Dew Point: 39°   Wind: 5mph
Humidity: 34%   Direction: NA
Pressure: 30.11"   Gusts: NA
Location:  34.45°N, 87.48°W
Report Text: K1M4 231956Z AUTO VRB04KT 10SM CLR 20/04 A3011 RMK AO2 T02000038 SLP207
Loading
Personal Weather Stations






























Interactive Weather Map
Tropical Storm Tracking
New forecast layout! Learn more

10-Day Weather Forecast

Advertisements
Track Severe Weather on mobile